Time;durP1;ratioP1;P1;durP2;ratioP2;P2;SDS_P1;SDS_P2;PMS_P1;PMS_P2;Temp;Humidity;BMP_temperature;BMP_pressure;BME280_temperature;BME280_humidity;BME280_pressure;Samples;Min_cycle;Max_cycle;Signal;HPM_P1;HPM_P2
2021/04/21 00:00:29;;;;;;;7.63;6.90;;;;;;;6.85;72.50;99244.25;5029678;28;20206;-81
2021/04/21 00:03:41;;;;;;;7.30;6.60;;;;;;;6.87;73.16;99257.34;5030110;28;20580;-83
2021/04/21 00:06:51;;;;;;;6.77;6.13;;;;;;;6.78;73.33;99250.56;5016010;28;20229;-81
2021/04/21 00:09:50;;;;;;;7.70;6.90;;;;;;;6.71;72.98;99249.75;5008354;28;20250;-82
2021/04/21 00:12:46;;;;;;;7.37;6.63;;;;;;;6.80;72.71;99262.69;5033896;28;20231;-83
2021/04/21 00:16:00;;;;;;;7.70;7.00;;;;;;;6.65;73.29;99254.06;5016142;28;20223;-82
2021/04/21 00:18:53;;;;;;;7.70;6.90;;;;;;;6.63;73.57;99253.41;5007814;28;20241;-80
2021/04/21 00:21:46;;;;;;;7.53;6.83;;;;;;;6.69;73.75;99260.59;5042601;28;20284;-83
2021/04/21 00:24:39;;;;;;;7.73;6.93;;;;;;;6.62;73.92;99254.47;5027064;28;20308;-81
2021/04/21 00:27:38;;;;;;;7.60;6.90;;;;;;;6.60;73.83;99248.50;5041389;28;20222;-80
2021/04/21 00:30:37;;;;;;;7.80;7.10;;;;;;;6.53;74.24;99258.34;5033651;28;20229;-80
2021/04/21 00:33:34;;;;;;;8.23;7.50;;;;;;;6.42;74.29;99241.13;5027756;28;20225;-80
2021/04/21 00:36:45;;;;;;;7.70;6.90;;;;;;;6.43;74.61;99248.09;5004469;28;20689;-80
2021/04/21 00:39:57;;;;;;;8.50;7.37;;;;;;;6.41;74.72;99250.13;5008141;28;20222;-80
2021/04/21 00:43:23;;;;;;;8.33;7.53;;;;;;;6.37;74.79;99248.06;4984005;28;20224;-81
2021/04/21 00:46:34;;;;;;;9.20;7.37;;;;;;;6.26;75.41;99243.31;4991187;28;20238;-82
2021/04/21 00:49:55;;;;;;;8.17;7.07;;;;;;;6.18;75.83;99241.69;5004766;28;20230;-81
2021/04/21 00:53:20;;;;;;;7.73;6.93;;;;;;;6.00;76.17;99238.75;5000973;28;20225;-82
2021/04/21 00:56:58;;;;;;;7.80;7.00;;;;;;;5.99;76.86;99247.75;5018964;28;20235;-81
2021/04/21 01:00:10;;;;;;;8.17;7.37;;;;;;;5.86;77.12;99239.69;4991196;28;20222;-80
2021/04/21 01:03:22;;;;;;;9.20;7.07;;;;;;;5.72;77.45;99238.84;4972851;28;20242;-81
2021/04/21 01:06:54;;;;;;;7.90;7.20;;;;;;;5.65;77.13;99238.78;5010836;28;20237;-80
2021/04/21 01:09:52;;;;;;;8.00;7.30;;;;;;;5.62;77.44;99243.69;5015513;28;20230;-83
2021/04/21 01:12:52;;;;;;;8.60;7.70;;;;;;;5.54;77.95;99238.53;4991052;28;20236;-81
2021/04/21 01:16:04;;;;;;;7.77;6.97;;;;;;;5.52;78.20;99248.53;5011155;28;20222;-80
2021/04/21 01:19:25;;;;;;;7.80;7.10;;;;;;;5.48;78.12;99242.81;5041284;28;20641;-80
2021/04/21 01:22:46;;;;;;;7.80;7.07;;;;;;;5.46;77.87;99250.13;5021329;28;20238;-80
2021/04/21 01:25:57;;;;;;;8.30;7.50;;;;;;;5.45;78.13;99245.84;5019431;28;20675;-82
2021/04/21 01:28:59;;;;;;;8.77;7.77;;;;;;;5.32;78.77;99243.09;5043118;28;20257;-80
2021/04/21 01:31:56;;;;;;;8.20;7.40;;;;;;;5.34;78.96;99246.38;5044331;28;20219;-81
2021/04/21 01:35:20;;;;;;;8.33;7.53;;;;;;;5.31;79.32;99238.81;5018307;28;20253;-80
2021/04/21 01:38:25;;;;;;;8.93;8.03;;;;;;;5.22;79.40;99240.00;5042718;28;20304;-81
2021/04/21 01:41:32;;;;;;;9.03;8.13;;;;;;;5.29;79.36;99248.81;5043282;28;20292;-80
2021/04/21 01:44:42;;;;;;;8.13;7.33;;;;;;;5.25;79.43;99240.41;5030113;28;20233;-81
2021/04/21 01:47:49;;;;;;;8.60;7.80;;;;;;;5.38;79.69;99244.16;5028628;28;20225;-81
2021/04/21 01:50:55;;;;;;;8.30;7.50;;;;;;;5.46;78.88;99250.13;5043473;28;20233;-83
2021/04/21 01:54:02;;;;;;;11.33;7.80;;;;;;;5.50;79.04;99243.44;5028326;28;20234;-80
2021/04/21 01:57:13;;;;;;;8.43;7.47;;;;;;;5.52;78.61;99237.91;5022520;28;20246;-80
2021/04/21 02:00:36;;;;;;;8.77;7.87;;;;;;;5.61;78.25;99244.69;5027468;28;20234;-80
2021/04/21 02:03:39;;;;;;;7.93;7.00;;;;;;;5.56;78.26;99239.97;5021699;28;20226;-81
2021/04/21 02:07:09;;;;;;;8.30;7.37;;;;;;;5.55;78.31;99232.22;5031151;28;20229;-83
2021/04/21 02:10:35;;;;;;;7.90;7.13;;;;;;;5.64;77.75;99245.16;5046395;28;20222;-80
2021/04/21 02:13:51;;;;;;;7.87;7.07;;;;;;;5.61;78.28;99247.34;5047161;28;20251;-80
2021/04/21 02:17:14;;;;;;;7.70;7.00;;;;;;;5.64;78.39;99244.31;4980572;28;20538;-82
2021/04/21 02:21:06;;;;;;;7.90;7.20;;;;;;;5.59;77.89;99236.94;5041684;28;20218;-81
2021/04/21 02:24:51;;;;;;;7.57;6.87;;;;;;;5.55;78.42;99237.53;4947142;28;20230;-81
2021/04/21 02:28:14;;;;;;;8.23;7.50;;;;;;;5.57;78.69;99246.09;5029700;28;20318;-80
2021/04/21 02:31:38;;;;;;;8.07;7.27;;;;;;;5.46;79.08;99244.81;5013687;28;20222;-80
2021/04/21 02:35:04;;;;;;;8.03;7.23;;;;;;;5.48;79.03;99244.63;5020730;28;22886;-80
2021/04/21 02:38:12;;;;;;;7.90;7.20;;;;;;;5.51;79.06;99239.75;4935962;28;20232;-80
2021/04/21 02:41:20;;;;;;;9.00;7.40;;;;;;;5.51;78.97;99244.22;5000703;28;20230;-82
2021/04/21 02:44:41;;;;;;;9.30;7.43;;;;;;;5.49;79.25;99252.41;5016717;28;20285;-81
2021/04/21 02:47:49;;;;;;;7.90;7.20;;;;;;;5.42;79.20;99232.94;5011179;28;20539;-83
2021/04/21 02:51:23;;;;;;;7.50;6.80;;;;;;;5.37;79.13;99235.38;5025752;28;20238;-80
2021/04/21 02:54:40;;;;;;;7.93;6.97;;;;;;;5.44;79.43;99246.03;5026916;28;20290;-82
2021/04/21 02:58:09;;;;;;;7.83;7.03;;;;;;;5.33;79.17;99240.25;5026030;28;20230;-82
2021/04/21 03:01:40;;;;;;;7.57;6.87;;;;;;;5.33;78.97;99232.28;4991267;28;20238;-80
2021/04/21 03:05:00;;;;;;;7.47;6.77;;;;;;;5.28;78.80;99228.56;5015410;28;20246;-82
2021/04/21 03:08:21;;;;;;;8.10;7.30;;;;;;;5.31;78.71;99234.34;5013487;28;20278;-81
2021/04/21 03:12:01;;;;;;;7.33;6.63;;;;;;;5.32;78.77;99233.28;5026635;28;20230;-80
2021/04/21 03:15:05;;;;;;;8.60;7.70;;;;;;;5.35;78.84;99233.94;5025103;28;20280;-80
2021/04/21 03:18:02;;;;;;;8.40;7.53;;;;;;;5.38;78.42;99225.56;4991911;28;20218;-80
2021/04/21 03:21:43;;;;;;;7.87;7.17;;;;;;;5.35;78.24;99228.63;4992318;28;20232;-81
2021/04/21 03:24:37;;;;;;;8.77;7.53;;;;;;;5.48;77.83;99237.47;5018934;28;20572;-82
2021/04/21 03:27:24;;;;;;;8.00;7.20;;;;;;;5.50;77.65;99246.09;4989301;28;20226;-80
2021/04/21 03:30:19;;;;;;;7.83;7.10;;;;;;;5.50;77.69;99243.44;5023676;28;20277;-80
2021/04/21 03:33:38;;;;;;;7.83;7.10;;;;;;;5.55;77.66;99238.31;5024692;28;20254;-80
2021/04/21 03:36:34;;;;;;;8.47;7.13;;;;;;;5.58;76.79;99234.47;5025639;28;20227;-81
2021/04/21 03:39:32;;;;;;;8.00;7.20;;;;;;;5.52;76.35;99221.97;5011468;28;20222;-81
2021/04/21 03:42:44;;;;;;;8.63;7.73;;;;;;;5.44;76.92;99233.59;5025717;28;20207;-80
2021/04/21 03:46:03;;;;;;;8.97;8.07;;;;;;;5.53;76.31;99235.06;5011159;28;20280;-80
2021/04/21 03:48:58;;;;;;;8.50;7.67;;;;;;;5.45;76.98;99237.88;5012557;28;20230;-80
2021/04/21 03:51:54;;;;;;;8.37;7.57;;;;;;;5.42;76.80;99234.78;5012901;28;20214;-80
2021/04/21 03:54:46;;;;;;;8.03;7.33;;;;;;;5.27;77.74;99227.75;5013867;28;20234;-81
2021/04/21 03:57:48;;;;;;;8.97;7.80;;;;;;;5.26;77.89;99238.59;5045951;28;20229;-80
2021/04/21 04:01:12;;;;;;;8.73;7.83;;;;;;;5.32;77.65;99240.44;5030277;28;20324;-80
2021/04/21 04:04:05;;;;;;;8.83;8.03;;;;;;;5.21;78.02;99231.19;5014292;28;20233;-82
2021/04/21 04:07:10;;;;;;;9.73;8.63;;;;;;;5.28;77.86;99241.84;5025055;28;20281;-80
2021/04/21 04:10:06;;;;;;;9.13;8.13;;;;;;;5.27;78.15;99238.38;5040057;28;20218;-81
2021/04/21 04:12:56;;;;;;;9.20;8.30;;;;;;;5.22;77.76;99226.72;5006995;28;20226;-80
2021/04/21 04:15:56;;;;;;;9.80;8.60;;;;;;;5.22;77.85;99240.00;5011557;28;20290;-80
2021/04/21 04:18:56;;;;;;;9.07;8.10;;;;;;;5.24;77.81;99241.44;5014851;28;20233;-80
2021/04/21 04:22:30;;;;;;;10.80;8.80;;;;;;;5.33;77.43;99255.38;5024892;28;20234;-82
2021/04/21 04:25:36;;;;;;;8.80;8.00;;;;;;;5.28;77.59;99249.81;4981607;28;20230;-80
2021/04/21 04:29:03;;;;;;;20.90;13.23;;;;;;;5.31;77.46;99252.94;5007692;28;20227;-83
2021/04/21 04:32:02;;;;;;;22.70;14.30;;;;;;;5.45;77.36;99260.97;5009679;28;20199;-81
2021/04/21 04:35:00;;;;;;;12.13;10.43;;;;;;;5.51;76.75;99261.00;5002629;28;20295;-82
2021/04/21 04:37:56;;;;;;;10.00;9.10;;;;;;;5.67;76.67;99255.38;5013466;28;20237;-81
2021/04/21 04:41:07;;;;;;;9.93;8.93;;;;;;;5.89;76.16;99268.56;5011436;28;20226;-82
2021/04/21 04:44:06;;;;;;;9.13;7.27;;;;;;;6.12;74.98;99271.72;5029674;28;20226;-80
2021/04/21 04:47:02;;;;;;;9.13;8.03;;;;;;;6.12;73.98;99240.63;5043281;28;20253;-81
2021/04/21 04:50:05;;;;;;;8.97;7.93;;;;;;;6.50;73.81;99272.88;5009675;28;20242;-80
2021/04/21 04:53:05;;;;;;;9.00;8.10;;;;;;;6.68;72.94;99266.13;5004830;28;20246;-82
2021/04/21 04:55:59;;;;;;;10.40;8.27;;;;;;;6.88;72.44;99270.47;5008245;28;20239;-80
2021/04/21 04:59:14;;;;;;;8.70;7.83;;;;;;;7.07;70.93;99272.31;5005015;28;20236;-81
2021/04/21 05:02:01;;;;;;;8.87;8.03;;;;;;;7.36;70.43;99291.53;5015128;28;20249;-81
2021/04/21 05:05:14;;;;;;;8.30;7.50;;;;;;;7.62;69.69;99293.34;5034923;28;20291;-82
2021/04/21 05:08:21;;;;;;;7.90;7.10;;;;;;;7.85;68.53;99283.00;5004587;28;20230;-80
2021/04/21 05:11:23;;;;;;;8.13;7.33;;;;;;;8.05;68.25;99281.09;4989920;28;20277;-82
2021/04/21 05:14:39;;;;;;;8.50;7.60;;;;;;;8.27;66.84;99285.09;5002541;28;20654;-81
2021/04/21 05:18:05;;;;;;;8.57;7.70;;;;;;;8.51;66.06;99275.56;4994313;28;20230;-80
2021/04/21 05:21:19;;;;;;;9.40;7.60;;;;;;;8.68;65.51;99279.34;4978984;28;20311;-81
2021/04/21 05:24:23;;;;;;;8.00;7.30;;;;;;;8.88;64.60;99275.72;4981597;28;20251;-79
2021/04/21 05:27:33;;;;;;;9.23;8.23;;;;;;;9.08;64.47;99279.88;4983926;28;20226;-82
2021/04/21 05:30:44;;;;;;;14.20;12.70;;;;;;;9.25;63.97;99280.13;5000646;28;20393;-79
2021/04/21 05:33:48;;;;;;;11.50;8.90;;;;;;;9.46;62.83;99284.28;5008179;28;20237;-81
2021/04/21 05:37:16;;;;;;;8.33;7.40;;;;;;;9.65;61.90;99285.94;5005906;28;20258;-81
2021/04/21 05:40:32;;;;;;;8.33;7.53;;;;;;;9.88;61.58;99290.63;5001452;28;20242;-80
2021/04/21 05:43:31;;;;;;;8.17;7.27;;;;;;;10.04;60.67;99281.97;5042946;28;20230;-81
2021/04/21 05:46:32;;;;;;;8.47;7.67;;;;;;;10.20;60.37;99292.13;5025074;28;20282;-82
2021/04/21 05:49:44;;;;;;;9.63;7.57;;;;;;;10.39;59.52;99295.59;5011606;28;20222;-77
2021/04/21 05:53:06;;;;;;;8.20;7.50;;;;;;;10.59;59.41;99296.13;5043965;28;20301;-79
2021/04/21 05:56:24;;;;;;;8.70;7.60;;;;;;;10.86;59.05;99302.75;4994236;28;20322;-82
2021/04/21 05:59:43;;;;;;;8.30;7.50;;;;;;;10.97;58.16;99288.53;4970492;28;20227;-79
2021/04/21 06:02:56;;;;;;;8.77;7.53;;;;;;;11.26;57.54;99302.91;4986966;28;20700;-78
2021/04/21 06:05:53;;;;;;;8.80;7.20;;;;;;;11.42;57.25;99293.38;5031380;28;20230;-80
2021/04/21 06:08:50;;;;;;;8.63;7.83;;;;;;;11.68;56.42;99303.63;5014769;28;20237;-80
2021/04/21 06:11:48;;;;;;;8.50;7.80;;;;;;;11.82;55.64;99299.69;5005099;28;20305;-78
2021/04/21 06:14:32;;;;;;;8.83;7.93;;;;;;;11.87;55.25;99302.47;4993893;28;20246;-78
2021/04/21 06:17:33;;;;;;;8.73;7.90;;;;;;;12.11;54.71;99305.13;5035342;28;20246;-79
2021/04/21 06:20:28;;;;;;;9.30;8.40;;;;;;;12.28;54.23;99298.75;5023835;28;20237;-80
2021/04/21 06:23:17;;;;;;;9.00;8.10;;;;;;;12.45;54.26;99308.75;4995598;28;20254;-79
2021/04/21 06:26:06;;;;;;;9.07;8.27;;;;;;;12.58;54.16;99303.09;5005527;28;20229;-80
2021/04/21 06:29:11;;;;;;;9.43;8.43;;;;;;;12.79;53.39;99310.47;5046249;28;20240;-78
2021/04/21 06:31:58;;;;;;;8.70;7.83;;;;;;;12.93;52.97;99294.84;5046452;28;20221;-80
2021/04/21 06:35:17;;;;;;;8.67;7.87;;;;;;;13.18;51.98;99298.81;5033456;28;20225;-77
2021/04/21 06:38:41;;;;;;;9.03;8.13;;;;;;;13.36;51.96;99305.00;5051220;28;20228;-79
2021/04/21 06:42:02;;;;;;;8.43;7.63;;;;;;;13.42;51.68;99294.09;5049403;28;20252;-80
2021/04/21 06:49:23;;;;;;;9.10;8.30;;;;;;;13.68;52.11;99301.47;5077862;22;20196;-77
2021/04/21 06:52:59;;;;;;;9.27;7.70;;;;;;;13.85;51.56;99306.84;5081972;23;20209;-77
2021/04/21 06:55:46;;;;;;;8.60;7.70;;;;;;;14.00;51.35;99303.50;5097858;23;20227;-77
2021/04/21 06:58:32;;;;;;;9.67;8.67;;;;;;;14.17;50.30;99290.81;5107026;22;20250;-77
2021/04/21 07:01:14;;;;;;;9.93;8.93;;;;;;;14.42;50.59;99301.91;5117320;28;20204;-80
2021/04/21 07:03:48;;;;;;;9.37;8.33;;;;;;;14.52;49.41;99293.13;5117027;28;20223;-78
2021/04/21 07:06:39;;;;;;;9.00;8.17;;;;;;;14.67;48.36;99308.66;5104225;22;20541;-78
2021/04/21 07:09:35;;;;;;;9.60;8.60;;;;;;;14.67;48.25;99308.66;5087872;23;20229;-85
2021/04/21 07:12:17;;;;;;;9.20;8.20;;;;;;;14.85;48.25;99309.09;5081072;28;20249;-87
2021/04/21 07:14:54;;;;;;;8.80;8.00;;;;;;;15.03;47.68;99313.31;5062242;28;20541;-86
2021/04/21 07:17:25;;;;;;;9.40;8.50;;;;;;;15.06;47.37;99299.34;5076094;28;20528;-78
2021/04/21 07:19:52;;;;;;;9.40;8.50;;;;;;;15.13;47.83;99301.81;5076393;28;20230;-84
2021/04/21 07:22:19;;;;;;;9.50;8.70;;;;;;;15.26;47.14;99293.28;5040949;28;20223;-86
2021/04/21 07:24:46;;;;;;;9.83;8.60;;;;;;;15.31;47.03;99304.09;5038899;28;20231;-91
2021/04/21 07:27:14;;;;;;;9.87;8.87;;;;;;;15.47;46.75;99311.25;5055055;28;20264;-91
2021/04/21 07:29:45;;;;;;;10.67;9.67;;;;;;;15.61;46.25;99308.97;5052863;28;20302;-91
2021/04/21 07:32:23;;;;;;;9.80;8.90;;;;;;;15.65;46.21;99300.06;5053861;28;20499;-90
2021/04/21 07:35:01;;;;;;;9.57;8.67;;;;;;;15.77;46.31;99311.50;5075456;28;20228;-92
2021/04/21 07:37:38;;;;;;;9.23;8.33;;;;;;;15.79;45.46;99312.06;5058378;28;20586;-81
2021/04/21 07:40:24;;;;;;;8.87;8.07;;;;;;;15.94;45.50;99315.91;5038445;28;20232;-85
2021/04/21 07:43:13;;;;;;;9.20;8.37;;;;;;;16.01;46.18;99311.91;5074586;28;20239;-92
2021/04/21 07:45:41;;;;;;;9.47;8.53;;;;;;;16.15;45.72;99310.34;5073955;28;20239;-81
2021/04/21 07:48:36;;;;;;;10.13;9.23;;;;;;;16.27;45.80;99316.38;5054378;28;20233;-86
2021/04/21 07:51:16;;;;;;;9.90;7.90;;;;;;;16.50;43.48;99315.09;5074690;28;20645;-87
2021/04/21 07:53:48;;;;;;;7.90;7.20;;;;;;;16.49;43.55;99312.63;5075512;28;20229;-85
2021/04/21 07:56:20;;;;;;;8.77;7.30;;;;;;;16.61;42.15;99307.84;5069787;28;20221;-83
2021/04/21 07:58:51;;;;;;;7.73;7.03;;;;;;;16.49;41.24;99286.41;5055045;28;20536;-88
2021/04/21 08:01:35;;;;;;;7.90;7.07;;;;;;;16.52;40.80;99299.41;5073785;28;20221;-78
2021/04/21 08:04:25;;;;;;;8.67;7.17;;;;;;;16.77;41.34;99306.81;5048407;28;20217;-80
2021/04/21 08:06:58;;;;;;;7.77;6.87;;;;;;;16.83;40.59;99307.63;5061897;28;20224;-89
2021/04/21 08:09:32;;;;;;;8.13;7.10;;;;;;;16.85;40.38;99308.16;5074017;28;20530;-90
2021/04/21 08:12:13;;;;;;;8.47;7.03;;;;;;;16.83;39.64;99313.03;5066200;28;20564;-83
2021/04/21 08:14:53;;;;;;;7.50;6.67;;;;;;;16.96;40.48;99309.81;5023483;28;20594;-88
2021/04/21 08:17:28;;;;;;;8.13;7.43;;;;;;;17.06;39.54;99312.53;5066281;28;20631;-83
2021/04/21 08:20:06;;;;;;;7.87;7.00;;;;;;;16.97;40.30;99306.03;5057241;28;20491;-84
2021/04/21 08:22:39;;;;;;;8.30;7.50;;;;;;;16.94;39.49;99303.84;5065471;28;20230;-87
2021/04/21 08:25:15;;;;;;;7.93;7.17;;;;;;;16.98;39.96;99308.44;5033784;28;20509;-86
2021/04/21 08:27:50;;;;;;;7.87;7.13;;;;;;;17.02;40.93;99303.34;5052349;28;20525;-89
2021/04/21 08:30:34;;;;;;;8.20;7.47;;;;;;;17.29;40.61;99311.19;5022148;28;20787;-88
2021/04/21 08:33:14;;;;;;;8.80;7.90;;;;;;;17.52;40.79;99308.75;5068863;28;20260;-85
2021/04/21 08:35:56;;;;;;;8.97;8.17;;;;;;;17.49;41.15;99300.34;5040931;28;20236;-91
2021/04/21 08:38:29;;;;;;;9.63;8.73;;;;;;;17.20;41.80;99318.22;5037709;28;20228;-89
2021/04/21 08:41:03;;;;;;;8.90;8.10;;;;;;;17.28;40.55;99310.38;5073837;28;20658;-84
2021/04/21 08:43:40;;;;;;;8.80;8.03;;;;;;;17.27;39.58;99297.91;5056375;28;20225;-91
2021/04/21 08:46:18;;;;;;;8.90;8.10;;;;;;;17.20;41.40;99301.97;5053441;28;20232;-91
2021/04/21 08:48:55;;;;;;;10.07;9.17;;;;;;;17.23;42.35;99304.94;5072395;28;20231;-85
2021/04/21 08:51:32;;;;;;;9.57;8.67;;;;;;;17.57;41.19;99308.75;5058238;28;20529;-83
2021/04/21 08:54:12;;;;;;;10.40;9.50;;;;;;;17.76;40.19;99313.63;5053196;28;20225;-82
2021/04/21 08:56:50;;;;;;;10.83;9.70;;;;;;;17.58;40.04;99298.72;5054184;28;20225;-86
2021/04/21 08:59:25;;;;;;;9.83;8.83;;;;;;;18.06;39.46;99308.09;5073716;28;20231;-90
2021/04/21 09:02:05;;;;;;;10.57;9.57;;;;;;;18.55;39.41;99301.97;5056640;28;20223;-87
2021/04/21 09:04:46;;;;;;;12.03;10.93;;;;;;;18.84;38.88;99292.03;5025541;28;20317;-89
2021/04/21 09:07:24;;;;;;;10.13;9.20;;;;;;;18.81;37.85;99298.81;5026105;28;20217;-87
2021/04/21 09:10:04;;;;;;;9.90;8.97;;;;;;;18.81;38.14;99296.13;5061968;28;20220;-86
2021/04/21 09:12:44;;;;;;;10.00;9.00;;;;;;;18.97;38.54;99306.88;5067641;28;20311;-88
2021/04/21 09:15:21;;;;;;;10.80;9.90;;;;;;;18.79;38.27;99308.34;5083660;28;20232;-83
2021/04/21 09:18:01;;;;;;;57.20;14.73;;;;;;;18.94;38.40;99300.13;5059787;28;20244;-89
2021/04/21 09:20:48;;;;;;;17.10;10.00;;;;;;;19.16;37.17;99303.22;5057374;28;20403;-86
2021/04/21 09:23:36;;;;;;;10.47;9.57;;;;;;;18.70;37.90;99307.31;5045216;28;20559;-80
2021/04/21 09:26:32;;;;;;;11.27;10.00;;;;;;;18.54;39.05;99311.19;5062632;28;20303;-84
2021/04/21 09:29:14;;;;;;;11.77;10.63;;;;;;;18.21;38.84;99291.78;5041911;28;20275;-82
2021/04/21 09:31:51;;;;;;;10.97;9.87;;;;;;;17.55;40.41;99297.34;5023904;28;20536;-85
2021/04/21 09:34:24;;;;;;;11.30;10.30;;;;;;;17.86;40.38;99295.44;5073056;28;20232;-82
2021/04/21 09:37:05;;;;;;;11.23;10.20;;;;;;;18.19;39.74;99291.28;5069323;28;20640;-84
2021/04/21 09:39:44;;;;;;;11.83;10.73;;;;;;;18.01;38.21;99295.38;5058792;28;20274;-82
2021/04/21 09:42:32;;;;;;;11.20;10.20;;;;;;;17.98;38.99;99287.00;5076319;28;20392;-80
2021/04/21 09:45:37;;;;;;;9.90;9.00;;;;;;;18.65;38.10;99288.38;5042202;28;20528;-82
2021/04/21 09:48:39;;;;;;;10.17;9.27;;;;;;;18.81;36.11;99276.31;5033782;28;20244;-81
2021/04/21 09:51:23;;;;;;;10.33;9.20;;;;;;;19.38;35.68;99274.78;5062103;28;20557;-84
2021/04/21 09:54:09;;;;;;;9.23;8.43;;;;;;;19.48;34.95;99275.53;5050429;28;20221;-79
2021/04/21 09:56:52;;;;;;;8.17;7.37;;;;;;;19.46;34.24;99271.47;5041961;28;20252;-81
2021/04/21 09:59:58;;;;;;;7.80;7.20;;;;;;;19.61;34.26;99271.31;5060609;28;20270;-80
2021/04/21 10:02:40;;;;;;;8.03;7.23;;;;;;;19.59;33.71;99262.66;5039759;28;20320;-81
2021/04/21 10:05:35;;;;;;;7.57;6.77;;;;;;;20.11;32.23;99268.03;5039099;28;20226;-83
2021/04/21 10:08:24;;;;;;;7.67;6.83;;;;;;;20.67;31.62;99277.44;5023969;28;20234;-81
2021/04/21 10:11:13;;;;;;;7.90;7.20;;;;;;;21.08;30.66;99273.81;5063004;28;20220;-83
2021/04/21 10:13:58;;;;;;;8.00;7.20;;;;;;;21.48;29.94;99277.78;5051301;28;20250;-83
2021/04/21 10:16:44;;;;;;;9.00;8.00;;;;;;;21.65;29.48;99266.28;5020691;28;20238;-81
2021/04/21 10:19:35;;;;;;;7.87;7.07;;;;;;;21.88;28.54;99265.31;5042831;28;20229;-83
2021/04/21 10:22:21;;;;;;;7.70;7.00;;;;;;;21.97;28.47;99267.38;5061584;28;20265;-83
2021/04/21 10:25:03;;;;;;;7.53;6.93;;;;;;;22.24;28.06;99273.63;5046751;28;20248;-78
2021/04/21 10:27:54;;;;;;;7.97;7.37;;;;;;;22.48;27.65;99261.66;5056212;28;20232;-78
2021/04/21 10:30:45;;;;;;;7.20;6.57;;;;;;;21.70;28.41;99258.03;5061424;28;20232;-81
2021/04/21 10:33:35;;;;;;;7.50;6.80;;;;;;;21.70;29.08;99265.38;5060441;28;20312;-81
2021/04/21 10:36:18;;;;;;;8.07;7.27;;;;;;;21.58;28.85;99259.63;5052087;28;20232;-82
2021/04/21 10:39:06;;;;;;;8.17;7.40;;;;;;;22.08;28.30;99249.69;5026259;28;20261;-82
2021/04/21 10:41:44;;;;;;;7.87;7.17;;;;;;;22.50;27.59;99251.25;5039857;28;20239;-78
2021/04/21 10:44:30;;;;;;;7.40;6.80;;;;;;;22.69;27.88;99249.97;5047142;28;20219;-80
2021/04/21 10:47:09;;;;;;;7.67;6.90;;;;;;;22.65;28.10;99259.09;5060722;28;20320;-80
2021/04/21 10:50:06;;;;;;;7.60;7.00;;;;;;;22.44;27.91;99253.28;5066754;28;20232;-81
2021/04/21 10:52:51;;;;;;;36.20;10.20;;;;;;;22.46;27.80;99258.44;5050492;28;20244;-80
2021/04/21 10:55:35;;;;;;;12.53;6.30;;;;;;;22.25;27.29;99247.97;5050869;28;20234;-80
2021/04/21 10:58:19;;;;;;;21.17;7.23;;;;;;;22.07;28.06;99243.41;5055215;28;20240;-81
2021/04/21 11:00:58;;;;;;;6.13;5.53;;;;;;;21.96;27.63;99244.75;5037017;28;20252;-78
2021/04/21 11:03:48;;;;;;;37.17;9.80;;;;;;;22.03;27.78;99244.31;5035316;28;20237;-81
2021/04/21 11:06:40;;;;;;;7.10;6.50;;;;;;;21.93;28.41;99243.41;5003791;28;20675;-80
2021/04/21 11:09:57;;;;;;;6.80;6.20;;;;;;;22.00;28.42;99247.66;5037993;28;20218;-78
2021/04/21 11:12:52;;;;;;;6.40;5.80;;;;;;;22.17;28.08;99242.38;5040086;28;20524;-82
2021/04/21 11:15:41;;;;;;;72.30;13.27;;;;;;;22.52;27.21;99236.19;5035793;28;20236;-81
2021/04/21 11:18:28;;;;;;;6.00;5.50;;;;;;;23.18;26.72;99235.44;5060666;28;20630;-78
2021/04/21 11:21:10;;;;;;;6.63;5.63;;;;;;;23.58;26.66;99232.78;5042658;28;20577;-80
2021/04/21 11:24:07;;;;;;;48.33;10.80;;;;;;;23.91;24.98;99236.00;5008097;28;20232;-78
2021/04/21 11:26:56;;;;;;;7.07;5.33;;;;;;;24.27;24.26;99227.59;5039934;28;20225;-80
2021/04/21 11:29:40;;;;;;;6.93;6.22;;;;;;;24.16;24.43;99215.31;5023571;28;20821;-81
2021/04/21 11:32:40;;;;;;;6.63;6.10;;;;;;;24.10;24.39;99228.31;5040499;28;20656;-80
2021/04/21 11:35:30;;;;;;;6.40;5.80;;;;;;;23.97;24.66;99229.25;5023213;28;20225;-80
2021/04/21 11:38:45;;;;;;;5.78;5.28;;;;;;;23.46;23.85;99229.84;5038488;28;20232;-84
2021/04/21 11:41:19;;;;;;;6.90;6.30;;;;;;;23.22;23.41;99222.78;5044110;28;20257;-80
2021/04/21 11:43:54;;;;;;;6.60;5.80;;;;;;;22.82;23.62;99226.50;5038356;28;20286;-82
2021/04/21 11:47:02;;;;;;;7.07;5.60;;;;;;;22.67;23.90;99227.66;5023781;28;20515;-80
2021/04/21 11:50:06;;;;;;;5.30;4.80;;;;;;;22.23;24.39;99225.63;5017762;28;20232;-78
2021/04/21 11:53:02;;;;;;;5.57;5.07;;;;;;;22.53;24.97;99215.97;5038943;28;20231;-84
2021/04/21 11:56:06;;;;;;;5.87;5.37;;;;;;;22.84;25.08;99216.06;5022582;28;20634;-81
2021/04/21 11:58:45;;;;;;;5.27;4.77;;;;;;;23.31;24.58;99211.88;5023962;28;20666;-77
2021/04/21 12:01:32;;;;;;;8.63;4.70;;;;;;;23.74;25.22;99217.59;5053295;28;20227;-81
2021/04/21 12:04:14;;;;;;;5.30;4.80;;;;;;;24.33;24.16;99218.09;5042841;28;20229;-80
2021/04/21 12:06:52;;;;;;;6.30;5.80;;;;;;;24.42;23.21;99207.97;5026496;28;20282;-82
2021/04/21 12:09:39;;;;;;;5.30;4.90;;;;;;;24.07;22.55;99199.69;5036912;28;20228;-80
2021/04/21 12:12:26;;;;;;;6.20;5.55;;;;;;;23.91;22.56;99200.44;5018432;28;20530;-78
2021/04/21 12:15:14;;;;;;;107.07;16.15;;;;;;;23.93;22.85;99200.94;5019174;28;20225;-78
2021/04/21 12:18:04;;;;;;;6.93;5.72;;;;;;;23.74;23.21;99203.94;5028956;28;20529;-80
2021/04/21 12:20:47;;;;;;;5.53;5.13;;;;;;;23.70;22.72;99175.59;5038719;28;20217;-82
2021/04/21 12:23:36;;;;;;;79.20;12.40;;;;;;;23.61;22.87;99180.19;5054057;28;20232;-84
2021/04/21 12:26:27;;;;;;;6.13;5.35;;;;;;;23.82;23.88;99192.19;5054498;28;20216;-84
2021/04/21 12:29:10;;;;;;;6.20;5.60;;;;;;;23.32;24.18;99174.44;5054864;28;20226;-82
2021/04/21 12:31:44;;;;;;;5.32;4.90;;;;;;;23.17;24.02;99165.53;5065797;28;20221;-84
2021/04/21 12:34:14;;;;;;;5.65;5.15;;;;;;;22.90;25.09;99173.06;5001454;28;20233;-81
2021/04/21 12:36:42;;;;;;;50.33;11.40;;;;;;;23.03;24.92;99167.53;4999383;28;20238;-83
2021/04/21 12:39:21;;;;;;;6.73;5.30;;;;;;;22.94;23.64;99172.13;5019186;28;20238;-83
2021/04/21 12:41:57;;;;;;;5.57;5.17;;;;;;;22.85;24.52;99174.00;5023032;28;20222;-84
2021/04/21 12:44:33;;;;;;;6.20;5.57;;;;;;;22.74;24.54;99150.78;5053760;28;20230;-81
2021/04/21 12:47:07;;;;;;;5.63;5.13;;;;;;;23.03;24.86;99163.97;5033505;28;20227;-81
2021/04/21 12:49:41;;;;;;;7.00;5.95;;;;;;;23.25;24.50;99156.56;5017271;28;20770;-84
2021/04/21 12:52:18;;;;;;;7.18;5.38;;;;;;;23.18;24.00;99158.13;5045675;28;20219;-81
2021/04/21 12:54:50;;;;;;;113.27;15.50;;;;;;;23.36;24.00;99161.75;5037274;28;20228;-83
2021/04/21 12:57:22;;;;;;;10.67;6.33;;;;;;;23.70;23.36;99149.03;5037131;28;20244;-83
2021/04/21 12:59:52;;;;;;;5.43;4.95;;;;;;;23.99;23.10;99161.34;5037062;28;20640;-80
2021/04/21 13:02:42;;;;;;;5.32;4.85;;;;;;;24.23;22.64;99156.25;5026310;28;20558;-82
2021/04/21 13:05:11;;;;;;;5.50;5.00;;;;;;;24.19;22.54;99147.06;5036920;28;20229;-84
2021/04/21 13:07:39;;;;;;;14.55;5.65;;;;;;;24.07;23.22;99158.63;5072986;28;20658;-82
2021/04/21 13:10:12;;;;;;;14.48;6.60;;;;;;;24.19;23.44;99154.47;5056551;28;20224;-83
2021/04/21 13:12:41;;;;;;;4.93;4.53;;;;;;;24.16;23.18;99149.63;5073469;28;20267;-82
2021/04/21 13:15:16;;;;;;;4.50;4.10;;;;;;;24.12;23.18;99144.00;5089830;28;20236;-83
2021/04/21 13:17:52;;;;;;;5.68;5.18;;;;;;;24.17;22.65;99143.06;5088912;28;20568;-82
2021/04/21 13:20:39;;;;;;;5.65;5.15;;;;;;;24.12;22.88;99149.47;5076928;28;20228;-81
2021/04/21 13:23:12;;;;;;;7.55;5.43;;;;;;;23.89;22.41;99135.06;5077721;28;20228;-82
2021/04/21 13:26:02;;;;;;;5.30;4.90;;;;;;;23.70;22.87;99140.81;5073450;28;20231;-83
2021/04/21 13:28:34;;;;;;;5.57;4.32;;;;;;;23.84;23.14;99148.94;5075479;28;20248;-82
2021/04/21 13:31:14;;;;;;;4.57;4.07;;;;;;;23.78;23.85;99139.25;5075850;28;20530;-83
2021/04/21 13:33:44;;;;;;;4.47;4.18;;;;;;;23.26;25.29;99130.03;5073250;28;20583;-84
2021/04/21 13:36:19;;;;;;;4.70;4.22;;;;;;;23.69;25.70;99146.63;5072903;28;20513;-83
2021/04/21 13:39:08;;;;;;;4.95;4.50;;;;;;;23.30;24.39;99144.69;5049041;28;20222;-84
2021/04/21 13:42:02;;;;;;;4.20;3.80;;;;;;;22.69;25.76;99143.47;5061872;28;20217;-81
2021/04/21 13:44:50;;;;;;;3.83;3.30;;;;;;;22.02;26.33;99133.63;5078320;28;20236;-82
2021/04/21 13:47:34;;;;;;;4.00;3.37;;;;;;;21.54;27.83;99144.94;5067603;28;20226;-78